Temp: 3.7°C   Baro: 1036.4mb
  Wind: 0.0mph   Dir: W (273°)
  Rain: 0.0mm (0.0mm/hr)
  Solar: 0W/m2  Hum: 84%

Historic data

Bath Spa Weather Station Historical Data
Daily Summary for December 22, 2019 Units:  Both    English   Metric
Daily Weekly Monthly Yearly Custom
  High: Low: Average:
Temperature: 49.2 °F /  9.6 °C 42.4 °F /  5.8 °C 45.7 °F /  7.6 °C
Dew Point: 46 °F /  7.8 °C 39.4 °F /  4.1 °C 43.3 °F /  6.3 °C
Humidity: 95% 85% 92%
Wind Speed: 11.6mph /  18.7km/h - 4.8mph /  7.7km/h
Wind Gust: 22mph /  35.4km/h - -
Wind- - WNW
Pressure: 29.46 in /  997.5 hPa 28.70 in /  971.8 hPa -
Precipitation: 0.22 in /  5.59 mm    
Historical Graphs
 
 
Tabular Data for December 22, 2019
Time Temperature Dew Point Pressure Wind Wind Speed Wind Gust Humidity Rainfall Rate (Hourly) solar
00:09 47.1 °F /  8.4 °C 45.5 °F /  7.5 °C 28.70in /  971.8hPa West 3.2mph /  5.1km/h 8mph /  12.9km/h 94% 0.00in /  0mm 0 W/m2
00:14 47.1 °F /  8.4 °C 45.5 °F /  7.5 °C 28.71in /  972.1hPa WNW 4.7mph /  7.6km/h 8mph /  12.9km/h 94% 0.00in /  0mm 0 W/m2
00:19 47 °F /  8.3 °C 45.4 °F /  7.4 °C 28.71in /  972.1hPa WNW 5.2mph /  8.4km/h 9mph /  14.5km/h 94% 0.00in /  0mm 0 W/m2
00:24 46.9 °F /  8.3 °C 45.2 °F /  7.3 °C 28.71in /  972.1hPa WNW 4.8mph /  7.7km/h 10mph /  16.1km/h 94% 0.00in /  0mm 0 W/m2
00:29 46.8 °F /  8.2 °C 45.1 °F /  7.3 °C 28.71in /  972.1hPa WNW 4mph /  6.4km/h 10mph /  16.1km/h 94% 0.00in /  0mm 0 W/m2
00:34 46.8 °F /  8.2 °C 45.1 °F /  7.3 °C 28.72in /  972.5hPa West 5.6mph /  9km/h 9mph /  14.5km/h 94% 0.00in /  0mm 0 W/m2
00:39 46.6 °F /  8.1 °C 45 °F /  7.2 °C 28.72in /  972.5hPa WNW 5.8mph /  9.3km/h 8mph /  12.9km/h 94% 0.00in /  0mm 0 W/m2
00:44 46.5 °F /  8.1 °C 44.9 °F /  7.2 °C 28.72in /  972.5hPa West 4.7mph /  7.6km/h 8mph /  12.9km/h 94% 0.00in /  0mm 0 W/m2
00:49 46.3 °F /  7.9 °C 44.7 °F /  7.1 °C 28.73in /  972.8hPa WNW 4.5mph /  7.2km/h 8mph /  12.9km/h 94% 0.00in /  0mm 0 W/m2
00:54 46.2 °F /  7.9 °C 44.6 °F /  7 °C 28.73in /  972.8hPa West 4.1mph /  6.6km/h 7mph /  11.3km/h 94% 0.00in /  0mm 0 W/m2
00:59 46.2 °F /  7.9 °C 44.6 °F /  7 °C 28.73in /  972.8hPa WNW 6.6mph /  10.6km/h 11mph /  17.7km/h 94% 0.00in /  0mm 0 W/m2
01:04 46 °F /  7.8 °C 44.4 °F /  6.9 °C 28.74in /  973.1hPa West 7mph /  11.3km/h 12mph /  19.3km/h 94% 0.00in /  0mm 0 W/m2
01:09 45.9 °F /  7.7 °C 44.3 °F /  6.8 °C 28.74in /  973.1hPa WNW 6.4mph /  10.3km/h 12mph /  19.3km/h 94% 0.00in /  0mm 0 W/m2
01:14 45.9 °F /  7.7 °C 44.2 °F /  6.8 °C 28.74in /  973.1hPa WNW 4.5mph /  7.2km/h 10mph /  16.1km/h 94% 0.00in /  0mm 0 W/m2
01:19 45.8 °F /  7.7 °C 44.1 °F /  6.7 °C 28.75in /  973.5hPa West 6.6mph /  10.6km/h 10mph /  16.1km/h 94% 0.00in /  0mm 0 W/m2
01:24 45.7 °F /  7.6 °C 44.1 °F /  6.7 °C 28.75in /  973.5hPa WNW 8.6mph /  13.8km/h 12mph /  19.3km/h 94% 0.00in /  0mm 0 W/m2
01:29 45.6 °F /  7.6 °C 44 °F /  6.7 °C 28.76in /  973.8hPa WNW 6.8mph /  10.9km/h 13mph /  20.9km/h 94% 0.00in /  0mm 0 W/m2
01:34 45.5 °F /  7.5 °C 43.9 °F /  6.6 °C 28.77in /  974.2hPa NW 5.3mph /  8.5km/h 10mph /  16.1km/h 94% 0.00in /  0mm 0 W/m2
01:39 45.5 °F /  7.5 °C 44.1 °F /  6.7 °C 28.77in /  974.2hPa WNW 5.4mph /  8.7km/h 11mph /  17.7km/h 94.6% 0.00in /  0mm 0 W/m2
01:44 45.4 °F /  7.4 °C 44.1 °F /  6.7 °C 28.78in /  974.5hPa WNW 6.3mph /  10.1km/h 12mph /  19.3km/h 95% 0.00in /  0mm 0 W/m2
01:49 45.5 °F /  7.5 °C 44.1 °F /  6.7 °C 28.78in /  974.5hPa WNW 3.7mph /  6km/h 10mph /  16.1km/h 94.8% 0.01in /  0.25mm 0 W/m2
01:54 45.4 °F /  7.4 °C 44 °F /  6.7 °C 28.79in /  974.8hPa NNW 5.5mph /  8.9km/h 13mph /  20.9km/h 94.6% 0.01in /  0.25mm 0 W/m2
01:58 45.3 °F /  7.4 °C 44.1 °F /  6.7 °C 28.79in /  974.8hPa NW 5mph /  8km/h 13mph /  20.9km/h 95% 0.01in /  0.25mm 0 W/m2
02:04 45.3 °F /  7.4 °C 44.1 °F /  6.7 °C 28.80in /  975.2hPa WNW 7.8mph /  12.6km/h 14mph /  22.5km/h 95% 0.01in /  0.25mm 0 W/m2
02:09 45.3 °F /  7.4 °C 44.1 °F /  6.7 °C 28.80in /  975.2hPa NNW 5.1mph /  8.2km/h 13mph /  20.9km/h 95% 0.02in /  0.51mm 0 W/m2
02:14 45.3 °F /  7.4 °C 44.1 °F /  6.7 °C 28.81in /  975.5hPa NW 4.9mph /  7.9km/h 13mph /  20.9km/h 95% 0.02in /  0.51mm 0 W/m2
02:19 45.3 °F /  7.4 °C 44.1 °F /  6.7 °C 28.82in /  975.8hPa WNW 6.2mph /  10km/h 12mph /  19.3km/h 95% 0.02in /  0.51mm 0 W/m2
02:24 45.3 °F /  7.4 °C 44.1 °F /  6.7 °C 28.82in /  975.8hPa WNW 8mph /  12.9km/h 13mph /  20.9km/h 95% 0.02in /  0.51mm 0 W/m2
02:29 45.3 °F /  7.4 °C 44.1 °F /  6.7 °C 28.82in /  975.8hPa WNW 7mph /  11.3km/h 16mph /  25.7km/h 95% 0.02in /  0.51mm 0 W/m2
02:34 45.3 °F /  7.4 °C 44.1 °F /  6.7 °C 28.83in /  976.2hPa NW 8mph /  12.9km/h 13mph /  20.9km/h 95% 0.02in /  0.51mm 0 W/m2
02:38 45.3 °F /  7.4 °C 44.1 °F /  6.7 °C 28.83in /  976.2hPa NW 9.6mph /  15.4km/h 14mph /  22.5km/h 95% 0.02in /  0.51mm 0 W/m2
02:44 45.3 °F /  7.4 °C 44.1 °F /  6.7 °C 28.84in /  976.5hPa NW 8.2mph /  13.2km/h 14mph /  22.5km/h 95% 0.02in /  0.51mm 0 W/m2
02:49 45.3 °F /  7.4 °C 44.1 °F /  6.7 °C 28.84in /  976.5hPa WNW 6.7mph /  10.8km/h 13mph /  20.9km/h 95% 0.02in /  0.51mm 0 W/m2
02:54 45.3 °F /  7.4 °C 44.1 °F /  6.7 °C 28.85in /  976.9hPa NW 5.5mph /  8.9km/h 13mph /  20.9km/h 95% 0.02in /  0.51mm 0 W/m2
02:59 45.4 °F /  7.4 °C 44.2 °F /  6.8 °C 28.86in /  977.2hPa WNW 6.4mph /  10.3km/h 13mph /  20.9km/h 95% 0.02in /  0.51mm 0 W/m2
03:04 45.3 °F /  7.4 °C 44.1 °F /  6.7 °C 28.87in /  977.5hPa WNW 8.1mph /  13km/h 15mph /  24.1km/h 95% 0.03in /  0.76mm 0 W/m2
03:09 45.3 °F /  7.4 °C 44.1 °F /  6.7 °C 28.87in /  977.5hPa WNW 6.5mph /  10.5km/h 10mph /  16.1km/h 95% 0.02in /  0.51mm 0 W/m2
03:14 45.3 °F /  7.4 °C 44.1 °F /  6.7 °C 28.87in /  977.5hPa WNW 8.6mph /  13.8km/h 13mph /  20.9km/h 95% 0.03in /  0.76mm 0 W/m2
03:19 45.3 °F /  7.4 °C 44.1 °F /  6.7 °C 28.88in /  977.9hPa NW 9.2mph /  14.8km/h 15mph /  24.1km/h 95% 0.04in /  1.02mm 0 W/m2
03:24 45.3 °F /  7.4 °C 44.1 °F /  6.7 °C 28.89in /  978.2hPa WNW 7mph /  11.3km/h 15mph /  24.1km/h 95% 0.04in /  1.02mm 0 W/m2
03:29 45.3 °F /  7.4 °C 44.1 °F /  6.7 °C 28.89in /  978.2hPa WNW 8mph /  12.9km/h 14mph /  22.5km/h 95% 0.03in /  0.76mm 0 W/m2
03:34 45.1 °F /  7.3 °C 43.9 °F /  6.6 °C 28.89in /  978.2hPa NW 8.1mph /  13km/h 14mph /  22.5km/h 95% 0.04in /  1.02mm 0 W/m2
03:39 45.1 °F /  7.3 °C 43.9 °F /  6.6 °C 28.90in /  978.6hPa WNW 6.3mph /  10.1km/h 14mph /  22.5km/h 95% 0.04in /  1.02mm 0 W/m2
03:44 45.1 °F /  7.3 °C 43.9 °F /  6.6 °C 28.90in /  978.6hPa WNW 7.4mph /  11.9km/h 13mph /  20.9km/h 95% 0.04in /  1.02mm 0 W/m2
03:49 45 °F /  7.2 °C 43.7 °F /  6.5 °C 28.91in /  978.9hPa WNW 5.8mph /  9.3km/h 11mph /  17.7km/h 95% 0.04in /  1.02mm 0 W/m2
03:54 45 °F /  7.2 °C 43.7 °F /  6.5 °C 28.91in /  978.9hPa WNW 4.6mph /  7.4km/h 8mph /  12.9km/h 95% 0.04in /  1.02mm 0 W/m2
03:58 45 °F /  7.2 °C 43.7 °F /  6.5 °C 28.92in /  979.2hPa WNW 6mph /  9.7km/h 10mph /  16.1km/h 95% 0.03in /  0.76mm 0 W/m2
04:04 45 °F /  7.2 °C 43.7 °F /  6.5 °C 28.92in /  979.2hPa WNW 4.7mph /  7.6km/h 10mph /  16.1km/h 95% 0.03in /  0.76mm 0 W/m2
04:09 45 °F /  7.2 °C 43.7 °F /  6.5 °C 28.92in /  979.2hPa WNW 6.8mph /  10.9km/h 12mph /  19.3km/h 95% 0.02in /  0.51mm 0 W/m2
04:14 45 °F /  7.2 °C 43.7 °F /  6.5 °C 28.92in /  979.2hPa WNW 5.4mph /  8.7km/h 10mph /  16.1km/h 95% 0.02in /  0.51mm 0 W/m2
04:19 44.8 °F /  7.1 °C 43.5 °F /  6.4 °C 28.93in /  979.6hPa WNW 5.1mph /  8.2km/h 8mph /  12.9km/h 95% 0.02in /  0.51mm 0 W/m2
04:24 44.8 °F /  7.1 °C 43.5 °F /  6.4 °C 28.94in /  979.9hPa West 4.7mph /  7.6km/h 10mph /  16.1km/h 95% 0.01in /  0.25mm 0 W/m2
04:29 44.7 °F /  7.1 °C 43.4 °F /  6.3 °C 28.94in /  979.9hPa West 4mph /  6.4km/h 7mph /  11.3km/h 95% 0.01in /  0.25mm 0 W/m2
04:34 44.5 °F /  6.9 °C 43.2 °F /  6.2 °C 28.95in /  980.2hPa WNW 3.9mph /  6.3km/h 8mph /  12.9km/h 95% 0.00in /  0mm 0 W/m2
04:39 44.4 °F /  6.9 °C 43 °F /  6.1 °C 28.95in /  980.2hPa NW 4.6mph /  7.4km/h 7mph /  11.3km/h 94.6% 0.00in /  0mm 0 W/m2
04:44 44.4 °F /  6.9 °C 43.1 °F /  6.2 °C 28.95in /  980.2hPa WNW 4.2mph /  6.8km/h 8mph /  12.9km/h 94.8% 0.00in /  0mm 0 W/m2
04:49 44.4 °F /  6.9 °C 43 °F /  6.1 °C 28.95in /  980.2hPa NW 5.2mph /  8.4km/h 10mph /  16.1km/h 94.4% 0.00in /  0mm 0 W/m2
04:54 44.5 °F /  6.9 °C 42.9 °F /  6.1 °C 28.96in /  980.6hPa WNW 5.3mph /  8.5km/h 8mph /  12.9km/h 94% 0.00in /  0mm 0 W/m2
04:59 44.7 °F /  7.1 °C 43.1 °F /  6.2 °C 28.96in /  980.6hPa NW 5mph /  8km/h 13mph /  20.9km/h 94% 0.00in /  0mm 0 W/m2
05:04 44.8 °F /  7.1 °C 43.2 °F /  6.2 °C 28.97in /  980.9hPa WNW 5mph /  8km/h 11mph /  17.7km/h 94% 0.00in /  0mm 0 W/m2
05:09 44.8 °F /  7.1 °C 43.2 °F /  6.2 °C 28.97in /  980.9hPa West 6mph /  9.7km/h 9mph /  14.5km/h 94% 0.00in /  0mm 0 W/m2
05:14 44.8 °F /  7.1 °C 43.2 °F /  6.2 °C 28.97in /  980.9hPa WNW 4.4mph /  7.1km/h 9mph /  14.5km/h 94% 0.00in /  0mm 0 W/m2
05:19 44.8 °F /  7.1 °C 43.2 °F /  6.2 °C 28.98in /  981.3hPa WNW 4.9mph /  7.9km/h 9mph /  14.5km/h 94% 0.00in /  0mm 0 W/m2
05:24 44.6 °F /  7 °C 43 °F /  6.1 °C 28.98in /  981.3hPa WNW 4.3mph /  6.9km/h 9mph /  14.5km/h 94% 0.00in /  0mm 0 W/m2
05:29 44.6 °F /  7 °C 43 °F /  6.1 °C 28.98in /  981.3hPa WNW 5.6mph /  9km/h 10mph /  16.1km/h 94% 0.00in /  0mm 0 W/m2
05:34 44.6 °F /  7 °C 43 °F /  6.1 °C 28.99in /  981.6hPa WNW 4.2mph /  6.8km/h 10mph /  16.1km/h 94% 0.00in /  0mm 0 W/m2
05:39 44.6 °F /  7 °C 42.8 °F /  6 °C 28.99in /  981.6hPa WNW 2.6mph /  4.2km/h 6mph /  9.7km/h 93.4% 0.00in /  0mm 0 W/m2
05:44 44.7 °F /  7.1 °C 42.7 °F /  5.9 °C 28.99in /  981.6hPa WNW 5.2mph /  8.4km/h 7mph /  11.3km/h 93% 0.00in /  0mm 0 W/m2
05:49 44.8 °F /  7.1 °C 42.8 °F /  6 °C 29.00in /  981.9hPa NW 5mph /  8km/h 10mph /  16.1km/h 93% 0.00in /  0mm 0 W/m2
05:54 45 °F /  7.2 °C 43 °F /  6.1 °C 29.00in /  981.9hPa WNW 5.6mph /  9km/h 10mph /  16.1km/h 93% 0.00in /  0mm 0 W/m2
05:58 45.1 °F /  7.3 °C 43.1 °F /  6.2 °C 29.00in /  981.9hPa WNW 5.7mph /  9.2km/h 11mph /  17.7km/h 93% 0.00in /  0mm 0 W/m2
06:04 45 °F /  7.2 °C 43 °F /  6.1 °C 29.00in /  981.9hPa WNW 7.2mph /  11.6km/h 12mph /  19.3km/h 93% 0.00in /  0mm 0 W/m2
06:09 45 °F /  7.2 °C 43 °F /  6.1 °C 29.01in /  982.3hPa WNW 7.8mph /  12.6km/h 13mph /  20.9km/h 93% 0.00in /  0mm 0 W/m2
06:14 44.8 °F /  7.1 °C 42.8 °F /  6 °C 29.01in /  982.3hPa NW 8.4mph /  13.5km/h 14mph /  22.5km/h 93% 0.00in /  0mm 0 W/m2
06:19 44.5 °F /  6.9 °C 42.5 °F /  5.8 °C 29.01in /  982.3hPa WNW 8.6mph /  13.8km/h 15mph /  24.1km/h 93% 0.00in /  0mm 0 W/m2
06:24 44.2 °F /  6.8 °C 42.3 °F /  5.7 °C 29.02in /  982.6hPa WNW 6.3mph /  10.1km/h 12mph /  19.3km/h 93% 0.00in /  0mm 0 W/m2
06:29 44.1 °F /  6.7 °C 42.1 °F /  5.6 °C 29.02in /  982.6hPa NW 5.7mph /  9.2km/h 11mph /  17.7km/h 93% 0.00in /  0mm 0 W/m2
06:34 43.8 °F /  6.6 °C 41.8 °F /  5.4 °C 29.03in /  983hPa WNW 5.4mph /  8.7km/h 10mph /  16.1km/h 93% 0.00in /  0mm 0 W/m2
06:38 43.5 °F /  6.4 °C 41.7 °F /  5.4 °C 29.03in /  983hPa WNW 7mph /  11.3km/h 11mph /  17.7km/h 93% 0.00in /  0mm 0 W/m2
06:44 43.5 °F /  6.4 °C 41.7 °F /  5.4 °C 29.03in /  983hPa West 6.7mph /  10.8km/h 12mph /  19.3km/h 93% 0.00in /  0mm 0 W/m2
06:49 43.3 °F /  6.3 °C 41.5 °F /  5.3 °C 29.03in /  983hPa WNW 6.6mph /  10.6km/h 12mph /  19.3km/h 93% 0.00in /  0mm 0 W/m2
06:54 43.3 °F /  6.3 °C 41.5 °F /  5.3 °C 29.04in /  983.3hPa WNW 4.1mph /  6.6km/h 12mph /  19.3km/h 93% 0.00in /  0mm 0 W/m2
06:59 43.3 °F /  6.3 °C 41.4 °F /  5.2 °C 29.04in /  983.3hPa NW 3.3mph /  5.3km/h 10mph /  16.1km/h 92.8% 0.00in /  0mm 0 W/m2
07:04 43.2 °F /  6.2 °C 41.2 °F /  5.1 °C 29.05in /  983.6hPa NW 4.8mph /  7.7km/h 8mph /  12.9km/h 92.4% 0.00in /  0mm 0 W/m2
07:09 43.2 °F /  6.2 °C 41.2 °F /  5.1 °C 29.05in /  983.6hPa WNW 4.4mph /  7.1km/h 7mph /  11.3km/h 92.4% 0.00in /  0mm 0 W/m2
07:14 43.2 °F /  6.2 °C 41 °F /  5 °C 29.05in /  983.6hPa WNW 4.1mph /  6.6km/h 9mph /  14.5km/h 92% 0.00in /  0mm 0 W/m2
07:19 43.2 °F /  6.2 °C 41 °F /  5 °C 29.05in /  983.6hPa WNW 4.2mph /  6.8km/h 7mph /  11.3km/h 92% 0.00in /  0mm 0 W/m2
07:24 43.3 °F /  6.3 °C 41 °F /  5 °C 29.06in /  984hPa WNW 5mph /  8km/h 8mph /  12.9km/h 91.6% 0.00in /  0mm 0 W/m2
07:29 43.5 °F /  6.4 °C 41 °F /  5 °C 29.06in /  984hPa WNW 3.2mph /  5.1km/h 8mph /  12.9km/h 91% 0.00in /  0mm 0 W/m2
07:34 43.5 °F /  6.4 °C 41 °F /  5 °C 29.07in /  984.3hPa WNW 5.6mph /  9km/h 10mph /  16.1km/h 91% 0.00in /  0mm 0 W/m2
07:39 43.6 °F /  6.4 °C 41 °F /  5 °C 29.07in /  984.3hPa West 5.2mph /  8.4km/h 8mph /  12.9km/h 90.6% 0.00in /  0mm 0 W/m2
07:44 43.7 °F /  6.5 °C 41 °F /  5 °C 29.07in /  984.3hPa WNW 6.3mph /  10.1km/h 9mph /  14.5km/h 90% 0.00in /  0mm 0 W/m2
07:49 43.9 °F /  6.6 °C 41.2 °F /  5.1 °C 29.07in /  984.3hPa WNW 5.2mph /  8.4km/h 8mph /  12.9km/h 90% 0.00in /  0mm 0 W/m2
07:54 43.9 °F /  6.6 °C 41 °F /  5 °C 29.08in /  984.6hPa West 5.4mph /  8.7km/h 9mph /  14.5km/h 89.6% 0.00in /  0mm 0 W/m2
07:59 43.7 °F /  6.5 °C 40.6 °F /  4.8 °C 29.08in /  984.6hPa WNW 3.8mph /  6.1km/h 9mph /  14.5km/h 89% 0.00in /  0mm 0 W/m2
08:04 43.5 °F /  6.4 °C 40.5 °F /  4.7 °C 29.08in /  984.6hPa WNW 2.7mph /  4.3km/h 5mph /  8km/h 89% 0.00in /  0mm 0 W/m2
08:09 43.3 °F /  6.3 °C 40.3 °F /  4.6 °C 29.08in /  984.6hPa NW 3.2mph /  5.1km/h 6mph /  9.7km/h 89% 0.00in /  0mm 0 W/m2
08:14 43.3 °F /  6.3 °C 40.3 °F /  4.6 °C 29.08in /  984.6hPa WNW 2.3mph /  3.7km/h 6mph /  9.7km/h 89% 0.00in /  0mm 0 W/m2
08:19 43.2 °F /  6.2 °C 40.1 °F /  4.5 °C 29.09in /  985hPa WNW 2.5mph /  4km/h 6mph /  9.7km/h 89% 0.00in /  0mm 5 W/m2
08:24 43.1 °F /  6.2 °C 40 °F /  4.4 °C 29.09in /  985hPa WNW 2.4mph /  3.9km/h 5mph /  8km/h 89% 0.00in /  0mm 5 W/m2
08:29 42.9 °F /  6.1 °C 39.8 °F /  4.3 °C 29.09in /  985hPa WNW 2mph /  3.2km/h 4mph /  6.4km/h 89% 0.00in /  0mm 7 W/m2
08:34 42.6 °F /  5.9 °C 39.6 °F /  4.2 °C 29.10in /  985.3hPa West 2.8mph /  4.5km/h 4mph /  6.4km/h 89% 0.00in /  0mm 12 W/m2
08:39 42.4 °F /  5.8 °C 39.4 °F /  4.1 °C 29.10in /  985.3hPa West 1.8mph /  2.9km/h 2mph /  3.2km/h 89% 0.00in /  0mm 19 W/m2
08:44 42.4 °F /  5.8 °C 39.5 °F /  4.2 °C 29.10in /  985.3hPa West 0.8mph /  1.3km/h 3mph /  4.8km/h 89.2% 0.00in /  0mm 9 W/m2
08:49 42.4 °F /  5.8 °C 39.7 °F /  4.3 °C 29.10in /  985.3hPa WNW 1.3mph /  2.1km/h 3mph /  4.8km/h 90% 0.00in /  0mm 12 W/m2
08:54 42.5 °F /  5.8 °C 39.8 °F /  4.3 °C 29.11in /  985.7hPa NW 0.4mph /  0.6km/h 2mph /  3.2km/h 90% 0.00in /  0mm 32 W/m2
08:59 42.6 °F /  5.9 °C 39.9 °F /  4.4 °C 29.11in /  985.7hPa NW 1.2mph /  1.9km/h 3mph /  4.8km/h 90% 0.00in /  0mm 40 W/m2
09:04 42.8 °F /  6 °C 40.1 °F /  4.5 °C 29.11in /  985.7hPa NW 1mph /  1.6km/h 3mph /  4.8km/h 90% 0.00in /  0mm 42 W/m2
09:09 43 °F /  6.1 °C 40.3 °F /  4.6 °C 29.11in /  985.7hPa WNW 1.5mph /  2.4km/h 3mph /  4.8km/h 90% 0.00in /  0mm 54 W/m2
09:14 43.3 °F /  6.3 °C 40.6 °F /  4.8 °C 29.11in /  985.7hPa NNW 1.2mph /  1.9km/h 3mph /  4.8km/h 90% 0.00in /  0mm 54 W/m2
09:19 43.5 °F /  6.4 °C 40.8 °F /  4.9 °C 29.11in /  985.7hPa North 1.7mph /  2.7km/h 3mph /  4.8km/h 90.2% 0.00in /  0mm 32 W/m2
09:24 43.4 °F /  6.3 °C 40.7 °F /  4.8 °C 29.11in /  985.7hPa NNW 0.6mph /  1km/h 3mph /  4.8km/h 90% 0.00in /  0mm 39 W/m2
09:29 43.4 °F /  6.3 °C 40.7 °F /  4.8 °C 29.12in /  986hPa NNW 0.8mph /  1.3km/h 3mph /  4.8km/h 90% 0.00in /  0mm 49 W/m2
09:34 43.5 °F /  6.4 °C 40.8 °F /  4.9 °C 29.12in /  986hPa NW 0.2mph /  0.3km/h 2mph /  3.2km/h 90% 0.00in /  0mm 63 W/m2
09:39 43.8 °F /  6.6 °C 41.1 °F /  5.1 °C 29.12in /  986hPa Calm   2mph /  3.2km/h 90.3% 0.00in /  0mm 86 W/m2
09:44 43.9 °F /  6.6 °C 41.4 °F /  5.2 °C 29.12in /  986hPa NW 0.4mph /  0.6km/h 2mph /  3.2km/h 91% 0.00in /  0mm 121 W/m2
09:49 44.2 °F /  6.8 °C 41.7 °F /  5.4 °C 29.12in /  986hPa NW 1.2mph /  1.9km/h 3mph /  4.8km/h 91% 0.00in /  0mm 130 W/m2
09:54 44.5 °F /  6.9 °C 42 °F /  5.6 °C 29.13in /  986.3hPa NW 2.3mph /  3.7km/h 4mph /  6.4km/h 91% 0.00in /  0mm 84 W/m2
09:59 44.8 °F /  7.1 °C 42.3 °F /  5.7 °C 29.13in /  986.3hPa WNW 1.7mph /  2.7km/h 5mph /  8km/h 91% 0.00in /  0mm 76 W/m2
10:04 45.1 °F /  7.3 °C 42.5 °F /  5.8 °C 29.13in /  986.3hPa NW 2.1mph /  3.4km/h 6mph /  9.7km/h 91% 0.00in /  0mm 86 W/m2
10:09 45.3 °F /  7.4 °C 42.8 °F /  6 °C 29.13in /  986.3hPa NW 3.7mph /  6km/h 6mph /  9.7km/h 91% 0.00in /  0mm 79 W/m2
10:14 45.5 °F /  7.5 °C 43 °F /  6.1 °C 29.13in /  986.3hPa WNW 3.5mph /  5.6km/h 8mph /  12.9km/h 91% 0.00in /  0mm 83 W/m2
10:19 45.7 °F /  7.6 °C 43.2 °F /  6.2 °C 29.13in /  986.3hPa West 4.2mph /  6.8km/h 8mph /  12.9km/h 91% 0.00in /  0mm 93 W/m2
10:24 45.8 °F /  7.7 °C 43.2 °F /  6.2 °C 29.13in /  986.3hPa WNW 4mph /  6.4km/h 9mph /  14.5km/h 91% 0.00in /  0mm 105 W/m2
10:29 45.9 °F /  7.7 °C 43.3 °F /  6.3 °C 29.13in /  986.3hPa WNW 4mph /  6.4km/h 9mph /  14.5km/h 90.4% 0.00in /  0mm 98 W/m2
10:34 46 °F /  7.8 °C 43.3 °F /  6.3 °C 29.13in /  986.3hPa WNW 4.2mph /  6.8km/h 8mph /  12.9km/h 90% 0.00in /  0mm 95 W/m2
10:38 46.2 °F /  7.9 °C 43.5 °F /  6.4 °C 29.13in /  986.3hPa WNW 3.2mph /  5.1km/h 8mph /  12.9km/h 90% 0.00in /  0mm 79 W/m2
10:44 46.2 °F /  7.9 °C 43.5 °F /  6.4 °C 29.13in /  986.3hPa WNW 4.4mph /  7.1km/h 8mph /  12.9km/h 90% 0.00in /  0mm 72 W/m2
10:49 46.2 °F /  7.9 °C 43.5 °F /  6.4 °C 29.14in /  986.7hPa West 5mph /  8km/h 9mph /  14.5km/h 90% 0.00in /  0mm 62 W/m2
10:54 46.3 °F /  7.9 °C 43.5 °F /  6.4 °C 29.13in /  986.3hPa West 4.2mph /  6.8km/h 9mph /  14.5km/h 89.8% 0.00in /  0mm 98 W/m2
10:59 46.6 °F /  8.1 °C 43.5 °F /  6.4 °C 29.14in /  986.7hPa West 3.9mph /  6.3km/h 9mph /  14.5km/h 89% 0.00in /  0mm 109 W/m2
11:04 46.7 °F /  8.2 °C 43.6 °F /  6.4 °C 29.14in /  986.7hPa West 3.9mph /  6.3km/h 8mph /  12.9km/h 89% 0.00in /  0mm 100 W/m2
11:09 46.9 °F /  8.3 °C 43.8 °F /  6.6 °C 29.14in /  986.7hPa West 4.2mph /  6.8km/h 9mph /  14.5km/h 89% 0.00in /  0mm 137 W/m2
11:14 47 °F /  8.3 °C 44 °F /  6.7 °C 29.14in /  986.7hPa WSW 3.7mph /  6km/h 7mph /  11.3km/h 89% 0.00in /  0mm 97 W/m2
11:19 47.1 °F /  8.4 °C 44.1 °F /  6.7 °C 29.14in /  986.7hPa West 4.9mph /  7.9km/h 9mph /  14.5km/h 89% 0.00in /  0mm 72 W/m2
11:24 47.1 °F /  8.4 °C 43.9 °F /  6.6 °C 29.14in /  986.7hPa WSW 5.4mph /  8.7km/h 9mph /  14.5km/h 88.4% 0.00in /  0mm 74 W/m2
11:29 47.3 °F /  8.5 °C 43.9 °F /  6.6 °C 29.14in /  986.7hPa WSW 4.8mph /  7.7km/h 10mph /  16.1km/h 88% 0.00in /  0mm 107 W/m2
11:34 47.5 °F /  8.6 °C 44.1 °F /  6.7 °C 29.14in /  986.7hPa West 4.7mph /  7.6km/h 10mph /  16.1km/h 88% 0.00in /  0mm 114 W/m2
11:39 47.5 °F /  8.6 °C 44.1 °F /  6.7 °C 29.14in /  986.7hPa WSW 7.4mph /  11.9km/h 11mph /  17.7km/h 88% 0.00in /  0mm 114 W/m2
11:44 47.5 °F /  8.6 °C 44.1 °F /  6.7 °C 29.15in /  987hPa WSW 6mph /  9.7km/h 11mph /  17.7km/h 88% 0.00in /  0mm 69 W/m2
11:49 47.5 °F /  8.6 °C 44.1 °F /  6.7 °C 29.15in /  987hPa West 5.8mph /  9.3km/h 12mph /  19.3km/h 88% 0.00in /  0mm 70 W/m2
11:53 47.4 °F /  8.6 °C 44 °F /  6.7 °C 29.15in /  987hPa WSW 6.4mph /  10.3km/h 10mph /  16.1km/h 88% 0.01in /  0.25mm 88 W/m2
11:59 47.1 °F /  8.4 °C 43.7 °F /  6.5 °C 29.15in /  987hPa West 4.4mph /  7.1km/h 10mph /  16.1km/h 88% 0.01in /  0.25mm 86 W/m2
12:04 47.1 °F /  8.4 °C 44 °F /  6.7 °C 29.15in /  987hPa West 6.5mph /  10.5km/h 10mph /  16.1km/h 88.8% 0.01in /  0.25mm 72 W/m2
12:09 46.9 °F /  8.3 °C 43.9 °F /  6.6 °C 29.15in /  987hPa West 4.1mph /  6.6km/h 9mph /  14.5km/h 89% 0.02in /  0.51mm 69 W/m2
12:14 46.8 °F /  8.2 °C 43.8 °F /  6.6 °C 29.15in /  987hPa West 5.6mph /  9km/h 14mph /  22.5km/h 89% 0.02in /  0.51mm 72 W/m2
12:19 46.8 °F /  8.2 °C 44.1 °F /  6.7 °C 29.15in /  987hPa West 4.8mph /  7.7km/h 9mph /  14.5km/h 90% 0.02in /  0.51mm 90 W/m2
12:24 46.8 °F /  8.2 °C 44.1 °F /  6.7 °C 29.15in /  987hPa West 6mph /  9.7km/h 12mph /  19.3km/h 90% 0.02in /  0.51mm 88 W/m2
12:29 46.8 °F /  8.2 °C 44.2 °F /  6.8 °C 29.15in /  987hPa West 6mph /  9.7km/h 11mph /  17.7km/h 90.6% 0.03in /  0.76mm 105 W/m2
12:34 46.8 °F /  8.2 °C 44.2 °F /  6.8 °C 29.15in /  987hPa West 4.4mph /  7.1km/h 11mph /  17.7km/h 91% 0.04in /  1.02mm 174 W/m2
12:38 46.8 °F /  8.2 °C 44.2 °F /  6.8 °C 29.16in /  987.4hPa West 6.5mph /  10.5km/h 11mph /  17.7km/h 91% 0.04in /  1.02mm 130 W/m2
12:44 46.7 °F /  8.2 °C 44.2 °F /  6.8 °C 29.16in /  987.4hPa WNW 11.6mph /  18.7km/h 22mph /  35.4km/h 91% 0.04in /  1.02mm 53 W/m2
12:49 46.6 °F /  8.1 °C 44.1 °F /  6.7 °C 29.16in /  987.4hPa WNW 7.4mph /  11.9km/h 15mph /  24.1km/h 91% 0.04in /  1.02mm 84 W/m2
12:54 46.4 °F /  8 °C 43.9 °F /  6.6 °C 29.16in /  987.4hPa NW 6mph /  9.7km/h 15mph /  24.1km/h 91% 0.04in /  1.02mm 86 W/m2
12:59 46.2 °F /  7.9 °C 43.7 °F /  6.5 °C 29.16in /  987.4hPa WNW 5.2mph /  8.4km/h 11mph /  17.7km/h 91% 0.04in /  1.02mm 128 W/m2
13:04 46.2 °F /  7.9 °C 44 °F /  6.7 °C 29.16in /  987.4hPa WNW 2.6mph /  4.2km/h 6mph /  9.7km/h 91.8% 0.04in /  1.02mm 141 W/m2
13:09 46.6 °F /  8.1 °C 44.3 °F /  6.8 °C 29.16in /  987.4hPa West 3mph /  4.8km/h 5mph /  8km/h 92% 0.04in /  1.02mm 141 W/m2
13:14 46.8 °F /  8.2 °C 44.6 °F /  7 °C 29.16in /  987.4hPa West 2.1mph /  3.4km/h 6mph /  9.7km/h 92% 0.03in /  0.76mm 139 W/m2
13:19 46.8 °F /  8.2 °C 44.6 °F /  7 °C 29.16in /  987.4hPa West 2.4mph /  3.9km/h 6mph /  9.7km/h 92% 0.03in /  0.76mm 171 W/m2
13:24 47.2 °F /  8.4 °C 45 °F /  7.2 °C 29.16in /  987.4hPa WSW 3mph /  4.8km/h 4mph /  6.4km/h 92% 0.03in /  0.76mm 230 W/m2
13:29 47.3 °F /  8.5 °C 45.1 °F /  7.3 °C 29.16in /  987.4hPa WNW 3mph /  4.8km/h 6mph /  9.7km/h 92% 0.02in /  0.51mm 236 W/m2
13:34 47.5 °F /  8.6 °C 45.3 °F /  7.4 °C 29.17in /  987.7hPa WNW 3.3mph /  5.3km/h 6mph /  9.7km/h 92% 0.01in /  0.25mm 141 W/m2
13:38 47.6 °F /  8.7 °C 45.3 °F /  7.4 °C 29.17in /  987.7hPa WNW 1.2mph /  1.9km/h 5mph /  8km/h 92% 0.01in /  0.25mm 123 W/m2
13:44 47.8 °F /  8.8 °C 45.6 °F /  7.6 °C 29.17in /  987.7hPa West 3.6mph /  5.8km/h 5mph /  8km/h 92% 0.01in /  0.25mm 127 W/m2
13:49 47.8 °F /  8.8 °C 45.7 °F /  7.6 °C 29.16in /  987.4hPa WSW 3.4mph /  5.5km/h 7mph /  11.3km/h 92% 0.01in /  0.25mm 148 W/m2
13:54 48.1 °F /  8.9 °C 45.8 °F /  7.7 °C 29.16in /  987.4hPa West 3.4mph /  5.5km/h 7mph /  11.3km/h 91.6% 0.00in /  0mm 178 W/m2
13:59 48.6 °F /  9.2 °C 46 °F /  7.8 °C 29.17in /  987.7hPa West 5.8mph /  9.3km/h 9mph /  14.5km/h 91% 0.00in /  0mm 151 W/m2
14:04 48.8 °F /  9.3 °C 45.9 °F /  7.7 °C 29.17in /  987.7hPa West 4.7mph /  7.6km/h 9mph /  14.5km/h 90% 0.00in /  0mm 137 W/m2
14:09 48.9 °F /  9.4 °C 45.9 °F /  7.7 °C 29.17in /  987.7hPa West 7.8mph /  12.6km/h 11mph /  17.7km/h 89.2% 0.00in /  0mm 148 W/m2
14:14 49.2 °F /  9.6 °C 45.9 °F /  7.7 °C 29.17in /  987.7hPa WSW 3.2mph /  5.1km/h 11mph /  17.7km/h 88.3% 0.00in /  0mm 109 W/m2
14:19 49.1 °F /  9.5 °C 45.6 °F /  7.6 °C 29.17in /  987.7hPa West 5.2mph /  8.4km/h 8mph /  12.9km/h 87.8% 0.00in /  0mm 102 W/m2
14:24 48.9 °F /  9.4 °C 45.1 °F /  7.3 °C 29.18in /  988hPa WSW 6.5mph /  10.5km/h 11mph /  17.7km/h 87% 0.00in /  0mm 90 W/m2
14:29 48.9 °F /  9.4 °C 45.1 °F /  7.3 °C 29.18in /  988hPa West 4.1mph /  6.6km/h 11mph /  17.7km/h 87% 0.00in /  0mm 84 W/m2
14:34 48.9 °F /  9.4 °C 45.1 °F /  7.3 °C 29.18in /  988hPa West 4mph /  6.4km/h 8mph /  12.9km/h 87% 0.00in /  0mm 58 W/m2
14:39 48.6 °F /  9.2 °C 44.7 °F /  7.1 °C 29.18in /  988hPa West 6.7mph /  10.8km/h 11mph /  17.7km/h 86.4% 0.00in /  0mm 53 W/m2
14:44 48.4 °F /  9.1 °C 44.4 °F /  6.9 °C 29.18in /  988hPa West 5.6mph /  9km/h 11mph /  17.7km/h 86% 0.00in /  0mm 70 W/m2
14:49 48.3 °F /  9.1 °C 44.7 °F /  7.1 °C 29.18in /  988hPa West 7mph /  11.3km/h 9mph /  14.5km/h 87% 0.00in /  0mm 74 W/m2
14:54 48.4 °F /  9.1 °C 44.5 °F /  6.9 °C 29.18in /  988hPa West 5.6mph /  9km/h 10mph /  16.1km/h 86.2% 0.00in /  0mm 76 W/m2
14:59 48.4 °F /  9.1 °C 44.4 °F /  6.9 °C 29.19in /  988.4hPa West 4.3mph /  6.9km/h 10mph /  16.1km/h 86% 0.00in /  0mm 49 W/m2
15:04 48.6 °F /  9.2 °C 44.4 °F /  6.9 °C 29.19in /  988.4hPa West 3.7mph /  6km/h 10mph /  16.1km/h 85.4% 0.00in /  0mm 33 W/m2
15:09 48.3 °F /  9.1 °C 44 °F /  6.7 °C 29.19in /  988.4hPa West 3.8mph /  6.1km/h 8mph /  12.9km/h 85% 0.00in /  0mm 19 W/m2
15:14 48 °F /  8.9 °C 43.7 °F /  6.5 °C 29.20in /  988.7hPa West 3.1mph /  5km/h 8mph /  12.9km/h 85% 0.00in /  0mm 18 W/m2
15:19 48 °F /  8.9 °C 43.7 °F /  6.5 °C 29.20in /  988.7hPa WNW 2.8mph /  4.5km/h 5mph /  8km/h 85% 0.00in /  0mm 16 W/m2
15:24 47.9 °F /  8.8 °C 43.6 °F /  6.4 °C 29.20in /  988.7hPa West 4.3mph /  6.9km/h 8mph /  12.9km/h 85% 0.00in /  0mm 11 W/m2
15:29 47.9 °F /  8.8 °C 43.6 °F /  6.4 °C 29.20in /  988.7hPa West 6mph /  9.7km/h 9mph /  14.5km/h 85% 0.00in /  0mm 12 W/m2
15:34 47.8 °F /  8.8 °C 43.8 °F /  6.6 °C 29.21in /  989.1hPa West 7.6mph /  12.2km/h 12mph /  19.3km/h 85.8% 0.00in /  0mm 12 W/m2
15:39 47.8 °F /  8.8 °C 43.9 °F /  6.6 °C 29.21in /  989.1hPa West 5.6mph /  9km/h 12mph /  19.3km/h 86% 0.00in /  0mm 9 W/m2
15:44 47.7 °F /  8.7 °C 43.7 °F /  6.5 °C 29.21in /  989.1hPa West 5.6mph /  9km/h 9mph /  14.5km/h 86% 0.00in /  0mm 7 W/m2
15:49 47.6 °F /  8.7 °C 43.6 °F /  6.4 °C 29.21in /  989.1hPa West 3.3mph /  5.3km/h 8mph /  12.9km/h 86% 0.00in /  0mm 7 W/m2
15:54 47.5 °F /  8.6 °C 43.5 °F /  6.4 °C 29.21in /  989.1hPa West 3.2mph /  5.1km/h 7mph /  11.3km/h 86% 0.00in /  0mm 5 W/m2
15:59 47.3 °F /  8.5 °C 43.5 °F /  6.4 °C 29.21in /  989.1hPa West 4.8mph /  7.7km/h 8mph /  12.9km/h 86.4% 0.00in /  0mm 0 W/m2
16:04 47.4 °F /  8.6 °C 43.8 °F /  6.6 °C 29.21in /  989.1hPa WNW 3.2mph /  5.1km/h 8mph /  12.9km/h 87% 0.00in /  0mm 0 W/m2
16:09 47.3 °F /  8.5 °C 43.7 °F /  6.5 °C 29.22in /  989.4hPa WNW 3.8mph /  6.1km/h 8mph /  12.9km/h 87% 0.00in /  0mm 0 W/m2
16:14 47.3 °F /  8.5 °C 43.7 °F /  6.5 °C 29.22in /  989.4hPa West 5.2mph /  8.4km/h 7mph /  11.3km/h 87% 0.00in /  0mm 0 W/m2
16:19 47.1 °F /  8.4 °C 43.5 °F /  6.4 °C 29.22in /  989.4hPa West 3.8mph /  6.1km/h 9mph /  14.5km/h 87% 0.00in /  0mm 0 W/m2
16:24 47 °F /  8.3 °C 43.4 °F /  6.3 °C 29.22in /  989.4hPa West 3.4mph /  5.5km/h 8mph /  12.9km/h 87% 0.00in /  0mm 0 W/m2
16:29 46.9 °F /  8.3 °C 43.3 °F /  6.3 °C 29.22in /  989.4hPa WNW 2.7mph /  4.3km/h 7mph /  11.3km/h 87% 0.00in /  0mm 0 W/m2
16:34 47 °F /  8.3 °C 43.4 °F /  6.3 °C 29.23in /  989.7hPa WNW 2.8mph /  4.5km/h 7mph /  11.3km/h 87% 0.00in /  0mm 0 W/m2
16:38 47.1 °F /  8.4 °C 43.5 °F /  6.4 °C 29.23in /  989.7hPa West 3.7mph /  6km/h 6mph /  9.7km/h 87% 0.00in /  0mm 0 W/m2
16:44 47.1 °F /  8.4 °C 43.5 °F /  6.4 °C 29.23in /  989.7hPa West 4.3mph /  6.9km/h 8mph /  12.9km/h 87% 0.00in /  0mm 0 W/m2
16:49 47.1 °F /  8.4 °C 43.5 °F /  6.4 °C 29.24in /  990.1hPa West 2.1mph /  3.4km/h 7mph /  11.3km/h 87% 0.00in /  0mm 0 W/m2
16:54 47.1 °F /  8.4 °C 43.7 °F /  6.5 °C 29.24in /  990.1hPa WSW 4.5mph /  7.2km/h 8mph /  12.9km/h 88% 0.00in /  0mm 0 W/m2
16:59 46.9 °F /  8.3 °C 43.5 °F /  6.4 °C 29.25in /  990.4hPa WSW 7.4mph /  11.9km/h 12mph /  19.3km/h 88% 0.01in /  0.25mm 0 W/m2
17:04 46.8 °F /  8.2 °C 43.5 °F /  6.4 °C 29.25in /  990.4hPa WNW 4.5mph /  7.2km/h 12mph /  19.3km/h 88.3% 0.02in /  0.51mm 0 W/m2
17:09 46.7 °F /  8.2 °C 43.6 °F /  6.4 °C 29.25in /  990.4hPa West 4.8mph /  7.7km/h 10mph /  16.1km/h 89% 0.03in /  0.76mm 0 W/m2
17:14 46.6 °F /  8.1 °C 43.5 °F /  6.4 °C 29.25in /  990.4hPa West 5.3mph /  8.5km/h 8mph /  12.9km/h 89% 0.03in /  0.76mm 0 W/m2
17:19 46.6 °F /  8.1 °C 43.8 °F /  6.6 °C 29.25in /  990.4hPa West 4.4mph /  7.1km/h 7mph /  11.3km/h 89.8% 0.03in /  0.76mm 0 W/m2
17:24 46.6 °F /  8.1 °C 43.9 °F /  6.6 °C 29.26in /  990.7hPa WNW 3.1mph /  5km/h 6mph /  9.7km/h 90% 0.03in /  0.76mm 0 W/m2
17:28 46.5 °F /  8.1 °C 43.8 °F /  6.6 °C 29.26in /  990.7hPa West 3.7mph /  6km/h 9mph /  14.5km/h 90% 0.03in /  0.76mm 0 W/m2
17:34 46.2 °F /  7.9 °C 43.5 °F /  6.4 °C 29.26in /  990.7hPa West 2.4mph /  3.9km/h 5mph /  8km/h 90% 0.03in /  0.76mm 0 W/m2
17:39 46.2 °F /  7.9 °C 43.7 °F /  6.5 °C 29.26in /  990.7hPa West 4mph /  6.4km/h 6mph /  9.7km/h 91% 0.03in /  0.76mm 0 W/m2
17:44 46 °F /  7.8 °C 43.5 °F /  6.4 °C 29.26in /  990.7hPa West 4.2mph /  6.8km/h 8mph /  12.9km/h 91% 0.03in /  0.76mm 0 W/m2
17:49 46 °F /  7.8 °C 43.5 °F /  6.4 °C 29.26in /  990.7hPa WNW 4mph /  6.4km/h 8mph /  12.9km/h 91% 0.03in /  0.76mm 0 W/m2
17:54 45.9 °F /  7.7 °C 43.4 °F /  6.3 °C 29.27in /  991.1hPa West 2.7mph /  4.3km/h 6mph /  9.7km/h 91% 0.03in /  0.76mm 0 W/m2
17:59 45.9 °F /  7.7 °C 43.3 °F /  6.3 °C 29.27in /  991.1hPa West 4.3mph /  6.9km/h 7mph /  11.3km/h 91% 0.03in /  0.76mm 0 W/m2
18:04 45.9 °F /  7.7 °C 43.4 °F /  6.3 °C 29.28in /  991.4hPa West 3.7mph /  6km/h 6mph /  9.7km/h 91.2% 0.02in /  0.51mm 0 W/m2
18:09 45.9 °F /  7.7 °C 43.7 °F /  6.5 °C 29.28in /  991.4hPa West 5.2mph /  8.4km/h 7mph /  11.3km/h 92% 0.01in /  0.25mm 0 W/m2
18:14 45.9 °F /  7.7 °C 43.7 °F /  6.5 °C 29.28in /  991.4hPa WNW 2.9mph /  4.7km/h 8mph /  12.9km/h 92% 0.00in /  0mm 0 W/m2
18:19 45.9 °F /  7.7 °C 43.7 °F /  6.5 °C 29.28in /  991.4hPa WNW 2.9mph /  4.7km/h 6mph /  9.7km/h 92% 0.00in /  0mm 0 W/m2
18:24 45.9 °F /  7.7 °C 43.7 °F /  6.5 °C 29.29in /  991.8hPa WNW 4.8mph /  7.7km/h 10mph /  16.1km/h 92% 0.00in /  0mm 0 W/m2
18:29 46 °F /  7.8 °C 43.9 °F /  6.6 °C 29.29in /  991.8hPa NW 3.2mph /  5.1km/h 10mph /  16.1km/h 92% 0.01in /  0.25mm 0 W/m2
18:34 46 °F /  7.8 °C 43.9 °F /  6.6 °C 29.29in /  991.8hPa WNW 2.8mph /  4.5km/h 5mph /  8km/h 92% 0.01in /  0.25mm 0 W/m2
18:39 46 °F /  7.8 °C 43.8 °F /  6.6 °C 29.29in /  991.8hPa West 4.8mph /  7.7km/h 8mph /  12.9km/h 92% 0.01in /  0.25mm 0 W/m2
18:44 45.9 °F /  7.7 °C 43.7 °F /  6.5 °C 29.30in /  992.1hPa WNW 3.2mph /  5.1km/h 8mph /  12.9km/h 92% 0.01in /  0.25mm 0 W/m2
18:49 45.9 °F /  7.7 °C 43.7 °F /  6.5 °C 29.30in /  992.1hPa WNW 6.4mph /  10.3km/h 12mph /  19.3km/h 92% 0.01in /  0.25mm 0 W/m2
18:54 45.9 °F /  7.7 °C 43.7 °F /  6.5 °C 29.30in /  992.1hPa WNW 3.5mph /  5.6km/h 6mph /  9.7km/h 92% 0.01in /  0.25mm 0 W/m2
18:59 45.9 °F /  7.7 °C 43.7 °F /  6.5 °C 29.31in /  992.4hPa WNW 4mph /  6.4km/h 7mph /  11.3km/h 92% 0.01in /  0.25mm 0 W/m2
19:04 45.8 °F /  7.7 °C 43.6 °F /  6.4 °C 29.31in /  992.4hPa WNW 3.9mph /  6.3km/h 9mph /  14.5km/h 92% 0.01in /  0.25mm 0 W/m2
19:09 45.5 °F /  7.5 °C 43.5 °F /  6.4 °C 29.31in /  992.4hPa WNW 3.3mph /  5.3km/h 6mph /  9.7km/h 93% 0.01in /  0.25mm 0 W/m2
19:14 45.5 °F /  7.5 °C 43.5 °F /  6.4 °C 29.32in /  992.8hPa WNW 5.2mph /  8.4km/h 9mph /  14.5km/h 93% 0.01in /  0.25mm 0 W/m2
19:19 45.3 °F /  7.4 °C 43.3 °F /  6.3 °C 29.32in /  992.8hPa West 4.4mph /  7.1km/h 9mph /  14.5km/h 93% 0.01in /  0.25mm 0 W/m2
19:24 45.3 °F /  7.4 °C 43.3 °F /  6.3 °C 29.32in /  992.8hPa WNW 5.3mph /  8.5km/h 9mph /  14.5km/h 93% 0.01in /  0.25mm 0 W/m2
19:29 45.3 °F /  7.4 °C 43.3 °F /  6.3 °C 29.32in /  992.8hPa West 6.1mph /  9.8km/h 12mph /  19.3km/h 93% 0.00in /  0mm 0 W/m2
19:34 45.3 °F /  7.4 °C 43.3 °F /  6.3 °C 29.33in /  993.1hPa WNW 5.2mph /  8.4km/h 12mph /  19.3km/h 93% 0.00in /  0mm 0 W/m2
19:39 45.3 °F /  7.4 °C 43.3 °F /  6.3 °C 29.33in /  993.1hPa West 5.2mph /  8.4km/h 8mph /  12.9km/h 93% 0.00in /  0mm 0 W/m2
19:44 45.2 °F /  7.3 °C 43.2 °F /  6.2 °C 29.33in /  993.1hPa WNW 4.9mph /  7.9km/h 9mph /  14.5km/h 93% 0.00in /  0mm 0 W/m2
19:49 45.1 °F /  7.3 °C 43.2 °F /  6.2 °C 29.34in /  993.5hPa West 5.6mph /  9km/h 9mph /  14.5km/h 93% 0.00in /  0mm 0 W/m2
19:54 45 °F /  7.2 °C 43.1 °F /  6.2 °C 29.34in /  993.5hPa WNW 4.1mph /  6.6km/h 8mph /  12.9km/h 93% 0.00in /  0mm 0 W/m2
19:59 45 °F /  7.2 °C 43 °F /  6.1 °C 29.34in /  993.5hPa WNW 4.5mph /  7.2km/h 8mph /  12.9km/h 93% 0.00in /  0mm 0 W/m2
20:04 45 °F /  7.2 °C 43 °F /  6.1 °C 29.35in /  993.8hPa West 5.3mph /  8.5km/h 9mph /  14.5km/h 93% 0.00in /  0mm 0 W/m2
20:09 45.1 °F /  7.3 °C 43.1 °F /  6.2 °C 29.35in /  993.8hPa WNW 3.3mph /  5.3km/h 9mph /  14.5km/h 93% 0.00in /  0mm 0 W/m2
20:14 45.1 °F /  7.3 °C 43.2 °F /  6.2 °C 29.35in /  993.8hPa WNW 5.7mph /  9.2km/h 14mph /  22.5km/h 93% 0.00in /  0mm 0 W/m2
20:19 45.1 °F /  7.3 °C 43.2 °F /  6.2 °C 29.36in /  994.1hPa WNW 5.8mph /  9.3km/h 11mph /  17.7km/h 93% 0.00in /  0mm 0 W/m2
20:24 45.1 °F /  7.3 °C 43.2 °F /  6.2 °C 29.36in /  994.1hPa NW 5.2mph /  8.4km/h 11mph /  17.7km/h 93% 0.00in /  0mm 0 W/m2
20:29 45 °F /  7.2 °C 43 °F /  6.1 °C 29.36in /  994.1hPa NW 4.4mph /  7.1km/h 9mph /  14.5km/h 93% 0.00in /  0mm 0 W/m2
20:34 44.8 °F /  7.1 °C 42.8 °F /  6 °C 29.36in /  994.1hPa WNW 4mph /  6.4km/h 7mph /  11.3km/h 93% 0.00in /  0mm 0 W/m2
20:39 44.6 °F /  7 °C 42.6 °F /  5.9 °C 29.36in /  994.1hPa NW 3.5mph /  5.6km/h 8mph /  12.9km/h 93% 0.00in /  0mm 0 W/m2
20:44 44.4 °F /  6.9 °C 42.4 °F /  5.8 °C 29.37in /  994.5hPa WNW 3.2mph /  5.1km/h 6mph /  9.7km/h 93% 0.00in /  0mm 0 W/m2
20:49 44.4 °F /  6.9 °C 42.4 °F /  5.8 °C 29.37in /  994.5hPa WNW 8.1mph /  13km/h 10mph /  16.1km/h 93% 0.00in /  0mm 0 W/m2
20:54 44.5 °F /  6.9 °C 42.5 °F /  5.8 °C 29.37in /  994.5hPa WNW 4.2mph /  6.8km/h 10mph /  16.1km/h 93% 0.00in /  0mm 0 W/m2
20:59 44.7 °F /  7.1 °C 42.7 °F /  5.9 °C 29.37in /  994.5hPa WNW 6.4mph /  10.3km/h 10mph /  16.1km/h 93% 0.00in /  0mm 0 W/m2
21:04 44.9 °F /  7.2 °C 42.9 °F /  6.1 °C 29.37in /  994.5hPa West 6.8mph /  10.9km/h 11mph /  17.7km/h 93% 0.00in /  0mm 0 W/m2
21:09 45.1 °F /  7.3 °C 43.2 °F /  6.2 °C 29.38in /  994.8hPa WNW 5.6mph /  9km/h 11mph /  17.7km/h 93% 0.00in /  0mm 0 W/m2
21:14 45.3 °F /  7.4 °C 43.3 °F /  6.3 °C 29.38in /  994.8hPa WNW 5.6mph /  9km/h 10mph /  16.1km/h 93% 0.00in /  0mm 0 W/m2
21:19 45.5 °F /  7.5 °C 43.5 °F /  6.4 °C 29.38in /  994.8hPa WNW 4.1mph /  6.6km/h 10mph /  16.1km/h 93% 0.00in /  0mm 0 W/m2
21:24 45.7 °F /  7.6 °C 43.7 °F /  6.5 °C 29.38in /  994.8hPa West 6mph /  9.7km/h 10mph /  16.1km/h 93% 0.00in /  0mm 0 W/m2
21:29 45.8 °F /  7.7 °C 43.8 °F /  6.6 °C 29.39in /  995.1hPa West 6.3mph /  10.1km/h 11mph /  17.7km/h 93% 0.00in /  0mm 0 W/m2
21:34 45.9 °F /  7.7 °C 43.9 °F /  6.6 °C 29.39in /  995.1hPa West 4.9mph /  7.9km/h 9mph /  14.5km/h 93% 0.00in /  0mm 0 W/m2
21:39 45.9 °F /  7.7 °C 43.9 °F /  6.6 °C 29.39in /  995.1hPa West 4.1mph /  6.6km/h 8mph /  12.9km/h 93% 0.00in /  0mm 0 W/m2
21:44 45.9 °F /  7.7 °C 44 °F /  6.7 °C 29.40in /  995.5hPa West 4.6mph /  7.4km/h 9mph /  14.5km/h 93% 0.00in /  0mm 0 W/m2
21:49 46.1 °F /  7.8 °C 44.1 °F /  6.7 °C 29.41in /  995.8hPa West 6.9mph /  11.1km/h 12mph /  19.3km/h 93% 0.01in /  0.25mm 0 W/m2
21:54 46.1 °F /  7.8 °C 44.1 °F /  6.7 °C 29.41in /  995.8hPa West 7.2mph /  11.6km/h 17mph /  27.4km/h 93% 0.03in /  0.76mm 0 W/m2
21:59 45.7 °F /  7.6 °C 43.5 °F /  6.4 °C 29.41in /  995.8hPa West 7.4mph /  11.9km/h 17mph /  27.4km/h 92% 0.03in /  0.76mm 0 W/m2
22:04 45.7 °F /  7.6 °C 43.5 °F /  6.4 °C 29.42in /  996.2hPa West 6.7mph /  10.8km/h 14mph /  22.5km/h 92% 0.04in /  1.02mm 0 W/m2
22:09 45.5 °F /  7.5 °C 43.3 °F /  6.3 °C 29.42in /  996.2hPa WNW 10mph /  16.1km/h 19mph /  30.6km/h 92% 0.06in /  1.52mm 0 W/m2
22:14 45.4 °F /  7.4 °C 43.3 °F /  6.3 °C 29.42in /  996.2hPa West 8.9mph /  14.3km/h 17mph /  27.4km/h 92% 0.06in /  1.52mm 0 W/m2
22:19 45.3 °F /  7.4 °C 43.2 °F /  6.2 °C 29.42in /  996.2hPa WNW 6.6mph /  10.6km/h 16mph /  25.7km/h 92% 0.06in /  1.52mm 0 W/m2
22:24 45.3 °F /  7.4 °C 43.2 °F /  6.2 °C 29.42in /  996.2hPa West 6.6mph /  10.6km/h 12mph /  19.3km/h 92% 0.06in /  1.52mm 0 W/m2
22:29 45.1 °F /  7.3 °C 43 °F /  6.1 °C 29.43in /  996.5hPa West 3.1mph /  5km/h 10mph /  16.1km/h 92% 0.06in /  1.52mm 0 W/m2
22:34 45.1 °F /  7.3 °C 43 °F /  6.1 °C 29.43in /  996.5hPa West 3.6mph /  5.8km/h 7mph /  11.3km/h 92% 0.06in /  1.52mm 0 W/m2
22:39 45 °F /  7.2 °C 42.8 °F /  6 °C 29.43in /  996.5hPa West 3.9mph /  6.3km/h 7mph /  11.3km/h 92% 0.06in /  1.52mm 0 W/m2
22:44 44.8 °F /  7.1 °C 42.6 °F /  5.9 °C 29.43in /  996.5hPa WNW 5mph /  8km/h 8mph /  12.9km/h 92% 0.06in /  1.52mm 0 W/m2
22:49 44.8 °F /  7.1 °C 42.6 °F /  5.9 °C 29.43in /  996.5hPa WNW 2.8mph /  4.5km/h 6mph /  9.7km/h 92% 0.06in /  1.52mm 0 W/m2
22:54 44.8 °F /  7.1 °C 42.6 °F /  5.9 °C 29.44in /  996.8hPa WNW 6.3mph /  10.1km/h 10mph /  16.1km/h 92% 0.03in /  0.76mm 0 W/m2
22:59 44.8 °F /  7.1 °C 42.6 °F /  5.9 °C 29.44in /  996.8hPa West 2.8mph /  4.5km/h 10mph /  16.1km/h 92% 0.03in /  0.76mm 0 W/m2
23:04 45 °F /  7.2 °C 43 °F /  6.1 °C 29.44in /  996.8hPa West 4mph /  6.4km/h 7mph /  11.3km/h 93% 0.02in /  0.51mm 0 W/m2
23:09 45.1 °F /  7.3 °C 42.9 °F /  6.1 °C 29.44in /  996.8hPa West 5.8mph /  9.3km/h 11mph /  17.7km/h 92% 0.02in /  0.51mm 0 W/m2
23:14 45.2 °F /  7.3 °C 43.1 °F /  6.2 °C 29.45in /  997.2hPa West 3.8mph /  6.1km/h 9mph /  14.5km/h 92% 0.01in /  0.25mm 0 W/m2
23:19 45.4 °F /  7.4 °C 43.4 °F /  6.3 °C 29.45in /  997.2hPa West 6.4mph /  10.3km/h 11mph /  17.7km/h 92.8% 0.02in /  0.51mm 0 W/m2
23:24 45.7 °F /  7.6 °C 43.7 °F /  6.5 °C 29.45in /  997.2hPa WNW 7mph /  11.3km/h 11mph /  17.7km/h 93% 0.02in /  0.51mm 0 W/m2
23:29 45.7 °F /  7.6 °C 43.7 °F /  6.5 °C 29.45in /  997.2hPa West 7mph /  11.3km/h 12mph /  19.3km/h 93% 0.02in /  0.51mm 0 W/m2
23:34 45.7 °F /  7.6 °C 43.7 °F /  6.5 °C 29.45in /  997.2hPa West 6.4mph /  10.3km/h 12mph /  19.3km/h 92.8% 0.02in /  0.51mm 0 W/m2
23:39 45.7 °F /  7.6 °C 43.5 °F /  6.4 °C 29.45in /  997.2hPa West 6.8mph /  10.9km/h 11mph /  17.7km/h 92% 0.02in /  0.51mm 0 W/m2
23:44 45.7 °F /  7.6 °C 43.5 °F /  6.4 °C 29.46in /  997.5hPa West 3.9mph /  6.3km/h 9mph /  14.5km/h 92% 0.02in /  0.51mm 0 W/m2
23:49 45.7 °F /  7.6 °C 43.5 °F /  6.4 °C 29.46in /  997.5hPa WNW 6mph /  9.7km/h 13mph /  20.9km/h 92% 0.02in /  0.51mm 0 W/m2
23:54 45.6 °F /  7.6 °C 43.4 °F /  6.3 °C 29.46in /  997.5hPa West 4.8mph /  7.7km/h 10mph /  16.1km/h 92% 0.02in /  0.51mm 0 W/m2
23:59 45.7 °F /  7.6 °C 43.5 °F /  6.4 °C 29.46in /  997.5hPa West 5.3mph /  8.5km/h 9mph /  14.5km/h 92% 0.01in /  0.25mm 0 W/m2
Bath Spa Weather
Compliments of Weather Underground - 2 mb